Chicago, Illinois
Current Conditions -  °F | °C
As of 6:53 PM on Monday 22 Dec 2014 (Local Time) from KMDW Reporting Station
Light Rain Light Rain  
Wind Chill: 35°   Ceiling: 800
Heat Index: 42°   Visibility: 2mi
Dew Point: 40°   Wind: 13mph
Humidity: 92%   Direction: 120°ESE
Pressure: 29.67"   Gusts: NA
Location:  41.88°N, 87.63°W
Report Text: KMDW 230053Z 12011KT 2SM -RA BR OVC008 06/04 A2967 RMK AO2 SLP054 P0002 T00560044
Loading
Personal Weather Stations






























Interactive Weather Map New forecast layout! Learn more

10-Day Weather Forecast

Advertisements
Track Severe Weather on mobile